TimeCDT,TemperatureF,Dew PointF,Humidity,Sea Level PressureIn,VisibilityMPH,Wind Direction,Wind SpeedMPH,Gust SpeedMPH,PrecipitationIn,Events,Conditions,WindDirDegrees,DateUTC
12:54 AM,66.9,50.0,54,30.03,10.0,East,8.1,-,N/A,,Clear,100,2013-09-14 05:54:00
1:54 AM,64.9,50.0,58,30.03,10.0,East,8.1,-,N/A,,Clear,100,2013-09-14 06:54:00
2:54 AM,64.0,50.0,60,30.03,10.0,ESE,6.9,-,N/A,,Clear,110,2013-09-14 07:54:00
3:54 AM,63.0,50.0,63,30.01,10.0,East,6.9,-,N/A,,Clear,100,2013-09-14 08:54:00
4:54 AM,63.0,51.1,65,30.01,10.0,ESE,3.5,-,N/A,,Clear,110,2013-09-14 09:54:00
5:54 AM,62.1,51.1,67,30.01,10.0,East,8.1,-,N/A,,Clear,100,2013-09-14 10:54:00
6:54 AM,63.0,51.1,65,30.02,10.0,ESE,6.9,-,N/A,,Clear,110,2013-09-14 11:54:00
8:54 AM,66.0,54.0,65,30.05,10.0,ESE,6.9,-,N/A,,Clear,120,2013-09-14 13:54:00
9:54 AM,69.1,55.0,61,30.04,10.0,SE,12.7,-,N/A,,Clear,140,2013-09-14 14:54:00
10:54 AM,75.0,57.0,53,30.04,10.0,SE,11.5,-,N/A,,Clear,140,2013-09-14 15:54:00
11:54 AM,75.9,59.0,56,30.03,10.0,South,9.2,-,N/A,,Clear,170,2013-09-14 16:54:00
12:54 PM,79.0,60.1,52,30.02,10.0,SSE,9.2,-,N/A,,Clear,150,2013-09-14 17:54:00
1:54 PM,81.0,61.0,50,29.99,10.0,SSE,10.4,16.1,N/A,,Partly Cloudy,150,2013-09-14 18:54:00
2:54 PM,82.9,62.1,49,29.97,10.0,SSE,11.5,-,N/A,,Partly Cloudy,160,2013-09-14 19:54:00
3:54 PM,84.0,62.1,47,29.94,10.0,South,9.2,-,N/A,,Mostly Cloudy,180,2013-09-14 20:54:00
4:54 PM,84.0,62.1,47,29.92,10.0,SE,10.4,-,N/A,,Partly Cloudy,140,2013-09-14 21:54:00
6:54 PM,80.1,62.1,54,29.92,10.0,SSE,9.2,-,N/A,,Clear,150,2013-09-14 23:54:00
7:54 PM,77.0,62.1,60,29.93,10.0,SSE,8.1,-,N/A,,Clear,150,2013-09-15 00:54:00
8:54 PM,75.0,61.0,62,29.93,10.0,SE,6.9,-,N/A,,Clear,140,2013-09-15 01:54:00
9:54 PM,73.9,61.0,64,29.93,10.0,SSE,6.9,-,N/A,,Scattered Clouds,150,2013-09-15 02:54:00
10:54 PM,73.0,62.1,68,29.94,10.0,SSE,8.1,-,N/A,,Clear,160,2013-09-15 03:54:00
11:54 PM,72.0,62.1,71,29.94,10.0,SSE,8.1,-,N/A,,Clear,160,2013-09-15 04:54:00